createdAt,value
2022-10-17T00:01:54.578Z,100.00
2022-10-17T00:06:56.150Z,100.00
2022-10-17T00:11:57.682Z,100.00
2022-10-17T00:16:59.183Z,100.00
2022-10-17T00:22:00.711Z,100.00
2022-10-17T00:27:02.259Z,100.00
2022-10-17T00:32:03.812Z,100.00
2022-10-17T00:37:05.469Z,100.00
2022-10-17T00:42:07.120Z,100.00
2022-10-17T00:47:13.859Z,100.00
2022-10-17T00:52:21.451Z,100.00
2022-10-17T00:57:22.991Z,100.00
2022-10-17T01:02:25.248Z,100.00
2022-10-17T01:07:30.810Z,100.00
2022-10-17T01:12:59.528Z,100.00
2022-10-17T01:18:22.279Z,100.00
2022-10-17T01:23:35.774Z,100.00
2022-10-17T01:29:11.013Z,100.00
2022-10-17T01:34:22.135Z,100.00
2022-10-17T01:39:28.106Z,100.00
2022-10-17T01:45:00.141Z,100.00
2022-10-17T01:50:14.115Z,100.00
2022-10-17T01:55:22.911Z,100.00
2022-10-17T02:00:26.245Z,100.00
2022-10-17T02:05:39.168Z,100.00
2022-10-17T02:11:01.975Z,100.00
2022-10-17T02:16:15.489Z,100.00
2022-10-17T02:21:41.966Z,100.00
2022-10-17T02:26:58.532Z,100.00
2022-10-17T02:32:04.593Z,100.00
2022-10-17T02:37:08.063Z,100.00
2022-10-17T02:42:11.672Z,100.00
2022-10-17T02:47:25.698Z,100.00
2022-10-17T02:52:31.032Z,100.00
2022-10-17T02:57:40.380Z,100.00
2022-10-17T03:02:52.937Z,100.00
2022-10-17T03:07:55.531Z,100.00
2022-10-17T03:12:58.808Z,100.00
2022-10-17T03:18:00.450Z,100.00
2022-10-17T03:23:02.214Z,100.00
2022-10-17T03:28:05.516Z,100.00
2022-10-17T03:33:07.838Z,100.00
2022-10-17T03:38:09.476Z,100.00
2022-10-17T03:43:11.880Z,100.00
2022-10-17T03:48:14.728Z,100.00
2022-10-17T03:53:16.462Z,100.00
2022-10-17T03:58:18.070Z,100.00
2022-10-17T04:03:19.689Z,100.00
2022-10-17T04:08:22.170Z,100.00
2022-10-17T04:13:38.976Z,100.00
2022-10-17T04:18:41.678Z,100.00
2022-10-17T04:23:43.367Z,100.00
2022-10-17T04:28:56.557Z,100.00
2022-10-17T04:33:58.144Z,100.00
2022-10-17T04:39:02.910Z,100.00
2022-10-17T04:44:05.489Z,100.00
2022-10-17T04:49:11.250Z,100.00
2022-10-17T04:54:17.118Z,100.00
2022-10-17T04:59:22.189Z,100.00
2022-10-17T05:04:33.308Z,100.00
2022-10-17T05:09:35.412Z,100.00
2022-10-17T05:14:36.920Z,100.00
2022-10-17T05:19:38.942Z,100.00
2022-10-17T05:24:41.973Z,100.00
2022-10-17T05:29:45.649Z,100.00
2022-10-17T05:34:59.026Z,100.00
2022-10-17T05:40:01.436Z,100.00
2022-10-17T05:45:05.070Z,100.00
2022-10-17T05:50:08.530Z,100.00
2022-10-17T05:55:24.701Z,100.00
2022-10-17T06:00:26.877Z,100.00
2022-10-17T06:05:35.308Z,100.00
2022-10-17T06:10:38.458Z,100.00
2022-10-17T06:15:40.335Z,100.00
2022-10-17T06:20:45.409Z,100.00
2022-10-17T06:25:49.366Z,100.00
2022-10-17T06:30:51.814Z,100.00
2022-10-17T06:35:54.824Z,100.00
2022-10-17T06:41:09.641Z,100.00
2022-10-17T06:46:11.265Z,100.00
2022-10-17T06:51:16.800Z,100.00
2022-10-17T06:56:28.841Z,100.00
2022-10-17T07:01:46.086Z,100.00
2022-10-17T07:06:49.303Z,99.99
2022-10-17T07:11:54.063Z,99.07
2022-10-17T07:16:56.715Z,98.75
2022-10-17T07:21:59.781Z,98.32
2022-10-17T07:27:02.206Z,98.06
2022-10-17T07:32:06.454Z,97.54
2022-10-17T07:37:09.939Z,97.00
2022-10-17T07:42:14.567Z,96.86
2022-10-17T07:47:16.365Z,96.12
2022-10-17T07:52:18.479Z,96.01
2022-10-17T07:57:19.966Z,95.99
2022-10-17T08:02:24.499Z,96.15
2022-10-17T08:07:29.372Z,96.10
2022-10-17T08:12:34.192Z,95.26
2022-10-17T08:17:37.114Z,95.17
2022-10-17T08:22:38.606Z,94.36
2022-10-17T08:27:40.104Z,93.55
2022-10-17T08:32:41.996Z,93.55
2022-10-17T08:37:43.667Z,93.70
2022-10-17T08:43:10.939Z,93.66
2022-10-17T08:48:21.644Z,93.97
2022-10-17T08:53:38.505Z,93.26
2022-10-17T08:58:40.045Z,92.50
2022-10-17T09:04:12.955Z,93.30
2022-10-17T09:09:36.633Z,92.45
2022-10-17T09:14:48.734Z,90.52
2022-10-17T09:20:00.860Z,91.30
2022-10-17T09:25:07.291Z,90.82
2022-10-17T09:30:45.799Z,91.19
2022-10-17T09:35:48.578Z,91.11
2022-10-17T09:40:57.868Z,90.85
2022-10-17T09:46:22.615Z,90.02
2022-10-17T09:51:26.175Z,90.52
2022-10-17T09:56:28.038Z,90.14
2022-10-17T10:01:31.188Z,90.14
2022-10-17T10:06:33.066Z,90.00
2022-10-17T10:11:49.877Z,89.81
2022-10-17T10:16:53.749Z,89.29
2022-10-17T10:22:25.387Z,88.72
2022-10-17T10:27:27.935Z,88.57
2022-10-17T10:32:32.359Z,87.49
2022-10-17T10:37:40.159Z,87.17
2022-10-17T10:42:42.280Z,86.84
2022-10-17T10:47:58.648Z,86.64
2022-10-17T10:53:24.859Z,85.58
2022-10-17T10:58:42.026Z,85.63
2022-10-17T11:04:12.329Z,84.25
2022-10-17T11:09:24.282Z,85.26
2022-10-17T11:14:41.860Z,84.88
2022-10-17T11:19:56.491Z,85.03
2022-10-17T11:24:59.773Z,84.10
2022-10-17T11:30:01.710Z,83.73
2022-10-17T11:35:15.361Z,83.95
2022-10-17T11:40:31.382Z,84.08
2022-10-17T11:45:41.008Z,84.48
2022-10-17T11:56:10.023Z,82.61
2022-10-17T12:01:26.495Z,83.37
2022-10-17T12:06:48.099Z,81.31
2022-10-17T12:12:00.496Z,81.35
2022-10-17T12:17:02.706Z,80.86
2022-10-17T12:22:20.162Z,81.32
2022-10-17T12:27:32.700Z,80.96
2022-10-17T12:33:00.480Z,80.34
2022-10-17T12:37:58.771Z,79.40
2022-10-17T12:43:16.300Z,79.95
2022-10-17T12:48:36.295Z,79.31
2022-10-17T12:53:45.262Z,78.62
2022-10-17T12:58:49.127Z,77.71
2022-10-17T13:03:52.493Z,77.94
2022-10-17T13:09:04.161Z,77.15
2022-10-17T13:14:13.099Z,76.68
2022-10-17T13:19:17.748Z,76.91
2022-10-17T13:24:23.782Z,76.93
2022-10-17T13:29:25.956Z,76.21
2022-10-17T13:34:28.100Z,75.86
2022-10-17T13:39:52.447Z,76.49
2022-10-17T13:44:55.967Z,76.07
2022-10-17T13:49:58.066Z,75.68
2022-10-17T13:55:11.081Z,75.92
2022-10-17T14:00:20.861Z,75.95
2022-10-17T14:05:23.677Z,75.33
2022-10-17T14:10:27.461Z,74.77
2022-10-17T14:15:30.955Z,75.23
2022-10-17T14:21:29.209Z,75.34
2022-10-17T14:26:21.473Z,75.73
2022-10-17T14:31:26.108Z,75.97
2022-10-17T14:36:38.549Z,75.92
2022-10-17T14:41:44.215Z,75.30
2022-10-17T14:46:50.498Z,74.70
2022-10-17T14:52:18.382Z,75.14
2022-10-17T14:57:29.103Z,75.58
2022-10-17T15:02:31.144Z,75.88
2022-10-17T15:07:32.854Z,76.57
2022-10-17T15:12:34.454Z,76.85
2022-10-17T15:17:35.970Z,77.18
2022-10-17T15:22:37.484Z,77.53
2022-10-17T15:27:39.064Z,77.41
2022-10-17T15:32:40.562Z,77.32
2022-10-17T15:37:42.912Z,77.54
2022-10-17T15:42:44.518Z,77.68
2022-10-17T15:47:51.646Z,77.67
2022-10-17T15:52:53.486Z,77.71
2022-10-17T15:57:55.001Z,77.33
2022-10-17T16:02:56.546Z,78.05
2022-10-17T16:07:58.373Z,78.10
2022-10-17T16:12:59.856Z,78.37
2022-10-17T16:18:04.238Z,78.88
2022-10-17T16:23:08.450Z,79.65
2022-10-17T16:28:11.842Z,79.23
2022-10-17T16:33:13.577Z,80.40
2022-10-17T16:38:15.146Z,80.51
2022-10-17T16:43:16.634Z,80.42
2022-10-17T16:48:18.183Z,80.63
2022-10-17T16:53:19.729Z,81.21
2022-10-17T16:58:21.226Z,80.90
2022-10-17T17:03:22.744Z,81.07
2022-10-17T17:08:24.305Z,81.19
2022-10-17T17:13:26.552Z,81.96
2022-10-17T17:18:28.700Z,81.24
2022-10-17T17:23:31.028Z,81.78
2022-10-17T17:28:33.571Z,82.05
2022-10-17T17:33:35.152Z,83.00
2022-10-17T17:38:36.960Z,82.76
2022-10-17T17:43:38.438Z,83.44
2022-10-17T17:48:41.082Z,83.90
2022-10-17T17:53:42.607Z,85.15
2022-10-17T17:58:46.637Z,87.05
2022-10-17T18:03:49.866Z,87.85
2022-10-17T18:08:53.532Z,89.28
2022-10-17T18:13:56.856Z,90.22
2022-10-17T18:19:02.608Z,88.81
2022-10-17T18:24:07.851Z,89.01
2022-10-17T18:29:09.401Z,88.57
2022-10-17T18:34:10.893Z,88.76
2022-10-17T18:39:12.427Z,90.80
2022-10-17T18:44:15.437Z,89.57
2022-10-17T18:49:25.034Z,90.42
2022-10-17T18:54:26.795Z,92.85
2022-10-17T18:59:28.330Z,90.72
2022-10-17T19:04:29.844Z,91.06
2022-10-17T19:09:31.473Z,90.83
2022-10-17T19:14:33.005Z,91.18
2022-10-17T19:19:34.576Z,92.43
2022-10-17T19:24:36.105Z,93.44
2022-10-17T19:29:38.012Z,92.22
2022-10-17T19:34:39.498Z,93.71
2022-10-17T19:39:40.969Z,92.95
2022-10-17T19:44:42.462Z,92.87
2022-10-17T19:49:49.064Z,93.19
2022-10-17T19:54:51.508Z,93.70
2022-10-17T19:59:55.830Z,96.22
2022-10-17T20:05:13.890Z,95.69
2022-10-17T20:10:19.272Z,95.93
2022-10-17T20:15:20.806Z,96.22
2022-10-17T20:20:22.337Z,94.46
2022-10-17T20:25:23.909Z,95.78
2022-10-17T20:30:25.584Z,94.68
2022-10-17T20:35:27.137Z,94.75
2022-10-17T20:40:36.112Z,95.98
2022-10-17T20:45:50.649Z,94.72
2022-10-17T20:50:53.618Z,95.02
2022-10-17T20:56:07.206Z,95.61
2022-10-17T21:01:10.118Z,96.79
2022-10-17T21:06:11.736Z,95.84
2022-10-17T21:11:19.037Z,96.25
2022-10-17T21:16:20.609Z,95.86
2022-10-17T21:21:26.617Z,95.58
2022-10-17T21:26:29.154Z,95.86
2022-10-17T21:31:30.894Z,95.70
2022-10-17T21:36:32.489Z,96.17
2022-10-17T21:41:34.129Z,95.84
2022-10-17T21:46:35.609Z,96.24
2022-10-17T21:51:37.136Z,96.89
2022-10-17T21:56:38.702Z,95.96
2022-10-17T22:01:43.909Z,96.06
2022-10-17T22:06:47.558Z,96.06
2022-10-17T22:11:51.851Z,96.97
2022-10-17T22:16:53.625Z,96.53
2022-10-17T22:21:55.161Z,96.93
2022-10-17T22:26:56.722Z,95.88
2022-10-17T22:31:58.476Z,97.17
2022-10-17T22:37:00.185Z,96.92
2022-10-17T22:42:01.695Z,96.17
2022-10-17T22:47:03.365Z,95.91
2022-10-17T22:52:04.980Z,96.31
2022-10-17T22:57:06.520Z,96.39
2022-10-17T23:02:08.043Z,96.82
2022-10-17T23:07:13.965Z,96.34
2022-10-17T23:12:15.473Z,97.03
2022-10-17T23:17:17.016Z,96.24
2022-10-17T23:22:18.527Z,95.97
2022-10-17T23:27:20.094Z,96.53
2022-10-17T23:32:21.609Z,96.64
2022-10-17T23:37:23.147Z,97.17
2022-10-17T23:42:24.713Z,96.17
2022-10-17T23:47:26.213Z,95.82
2022-10-17T23:52:27.754Z,95.55
2022-10-17T23:57:29.617Z,96.04
